Latest Weather Observations for Perisher Valley

IDN60901

Issued at 6:41 pm EDT Tuesday 6 December 2022 (issued every 10 minutes, with the page automatically refreshed every 10 minutes)

About weather observations | Map of Canberra area stations | Latest observations for Canberra area | Other Formats
Station Details ID: 071075 Name: PERISHER VALLEY AWS Lat: -36.41 Lon: 148.41 Height: 1738.0 m
Data from the previous 72 hours. | See also: Recent months at Perisher Valley
Date/Time
EDT
Temp
°C
App
Temp
°C
Dew
Point
°C
Rel
Hum
%
Delta-T
°C
Wind Press
QNH
hPa
Press
MSL
hPa
Rain since
9am
mm
Dir  Spd
km/h
Gust
km/h
Spd
kts
Gust
kts
06/06:30pm 8.7 4.9 3.7 71 2.4 WNW 13 28 7 15 - - 0.6
06/06:00pm 8.6 4.4 4.0 73 2.2 WNW 15 30 8 16 - - 0.6
06/05:30pm 8.6 3.8 4.6 76 2.0 W 19 32 10 17 - - 0.6
06/05:00pm 8.6 4.9 4.6 76 2.0 W 13 28 7 15 - - 0.6
06/04:30pm 8.1 3.7 5.0 81 1.5 WNW 17 26 9 14 - - 0.6
06/04:00pm 8.0 4.8 5.1 82 1.4 WSW 11 22 6 12 - - 0.4
06/03:30pm 8.6 5.2 3.8 72 2.3 W 11 22 6 12 - - 0.2
06/03:00pm 8.9 5.5 4.1 72 2.3 WNW 11 24 6 13 - - 0.2
06/02:30pm 10.1 5.7 2.9 61 3.4 WNW 15 24 8 13 - - 0.2
06/02:00pm 8.8 5.2 3.2 68 2.7 WNW 11 26 6 14 - - 0.2
06/01:30pm 8.9 4.2 2.9 66 2.8 W 17 30 9 16 - - 0.2
06/01:00pm 10.6 5.8 2.4 57 3.9 WNW 17 26 9 14 - - 0.2
06/12:30pm 9.8 4.9 1.9 58 3.7 WNW 17 33 9 18 - - 0.2
06/12:00pm 10.7 6.8 3.3 60 3.6 W 13 22 7 12 - - 0.2
06/11:30am 8.1 6.2 4.9 80 1.6 SSE 4 9 2 5 - - 0.2
06/11:00am 6.4 3.4 4.2 86 1.1 E 9 19 5 10 - - 0.2
06/10:30am 6.9 3.8 3.7 80 1.5 SSE 9 28 5 15 - - 0.2
06/10:00am 7.7 5.3 4.1 78 1.7 SSE 6 17 3 9 - - 0.2
06/09:30am 5.9 3.1 3.4 84 1.2 SSE 7 15 4 8 - - 0.0
06/09:00am 6.1 3.6 4.6 90 0.7 S 7 13 4 7 - - 2.0
06/08:30am 5.2 2.8 4.3 94 0.4 S 6 11 3 6 - - 2.0
06/08:00am 5.2 2.1 3.4 88 0.8 SSW 9 19 5 10 - - 2.0
06/07:30am 4.5 1.5 4.2 98 0.1 SSW 9 19 5 10 - - 2.0
06/07:00am 3.8 -0.1 3.4 97 0.2 SSW 13 19 7 10 - - 2.0
06/06:30am 3.8 0.2 2.9 94 0.4 SW 11 20 6 11 - - 2.0
06/06:00am 3.6 0.0 2.9 95 0.3 SW 11 20 6 11 - - 2.0
06/05:30am 3.5 0.7 3.1 97 0.2 SW 7 19 4 10 - - 2.0
06/05:00am 3.6 0.8 3.3 98 0.1 SSW 7 19 4 10 - - 2.0
06/04:30am 3.9 0.4 3.6 98 0.1 SSW 11 24 6 13 - - 2.0
06/04:00am 4.2 1.2 3.9 98 0.1 SW 9 17 5 9 - - 2.0
06/03:30am 4.2 1.5 3.5 95 0.3 S 7 17 4 9 - - 2.0
06/03:00am 4.5 1.5 3.9 96 0.3 SW 9 15 5 8 - - 2.0
06/02:30am 4.4 0.7 4.3 99 0.0 SSW 13 24 7 13 - - 2.0
06/02:00am 4.1 1.0 3.5 96 0.3 SW 9 20 5 11 - - 2.0
06/01:30am 4.7 1.8 4.7 100 0.0 SW 9 20 5 11 - - 2.0
06/01:00am 4.8 1.2 4.8 100 0.0 SSW 13 20 7 11 - - 2.0
06/12:30am 5.1 2.3 5.1 100 0.0 SSW 9 17 5 9 - - 2.0
06/12:00am 5.1 2.7 5.1 100 0.0 SW 7 15 4 8 - - 2.0
 
Date/Time
EDT
Temp
°C
App
Temp
°C
Dew
Point
°C
Rel
Hum
%
Delta-T
°C
Wind Press
QNH
hPa
Press
MSL
hPa
Rain since
9am
mm
Dir  Spd
km/h
Gust
km/h
Spd
kts
Gust
kts
05/11:30pm 5.2 1.6 5.2 100 0.0 SW 13 24 7 13 - - 2.0
05/11:00pm 5.4 3.0 5.1 98 0.1 SW 7 17 4 9 - - 2.0
05/10:30pm 5.4 2.2 5.3 99 0.0 SSW 11 20 6 11 - - 2.0
05/10:00pm 5.4 2.5 4.8 96 0.3 SW 9 20 5 11 - - 2.0
05/09:30pm 6.0 2.7 4.6 91 0.7 SSW 11 22 6 12 - - 2.0
05/09:00pm 7.1 5.0 6.0 93 0.6 E 6 17 3 9 - - 2.0
05/08:30pm 8.6 6.4 5.5 81 1.6 W 6 13 3 7 - - 2.0
05/08:00pm 9.0 6.7 5.7 80 1.7 WNW 7 19 4 10 - - 2.0
05/07:30pm 9.6 6.6 6.0 78 1.8 W 11 28 6 15 - - 2.0
05/07:00pm 9.9 5.8 6.1 77 1.9 WNW 17 30 9 16 - - 2.0
05/06:30pm 10.2 5.8 6.7 79 1.8 W 19 35 10 19 - - 2.0
05/06:00pm 10.3 6.3 6.8 79 1.8 W 17 39 9 21 - - 2.0
05/05:30pm 10.5 5.1 6.3 75 2.2 W 24 39 13 21 - - 2.0
05/05:00pm 10.4 5.0 6.4 76 2.1 W 24 44 13 24 - - 2.0
05/04:30pm 10.7 4.5 6.3 74 2.3 W 28 52 15 28 - - 2.0
05/04:29pm 10.7 4.5 6.1 73 2.4 W 28 52 15 28 - - 2.0
05/04:00pm 10.1 5.2 7.0 81 1.6 W 22 44 12 24 - - 2.0
05/03:30pm 10.3 7.0 8.2 87 1.1 W 15 32 8 17 - - 2.0
05/03:02pm 10.3 4.0 5.9 74 2.2 W 28 56 15 30 - - 2.0
05/03:00pm 10.4 5.0 6.4 76 2.1 W 24 54 13 29 - - 2.0
05/02:30pm 12.2 7.0 7.1 71 2.7 W 24 54 13 29 - - 0.0
05/02:00pm 14.0 8.8 7.1 63 3.7 W 24 44 13 24 - - 0.0
05/01:30pm 14.4 10.1 7.0 61 4.0 W 19 44 10 24 - - 0.0
05/01:00pm 14.6 9.5 7.6 63 3.8 W 24 48 13 26 - - 0.0
05/12:30pm 15.4 12.8 9.5 68 3.3 W 13 32 7 17 - - 0.0
05/12:00pm 14.7 11.1 8.4 66 3.5 WNW 17 43 9 23 - - 0.0
05/11:30am 14.3 10.1 8.3 67 3.3 W 20 39 11 21 - - 0.0
05/11:00am 12.9 8.2 7.8 71 2.8 W 22 46 12 25 - - 0.0
05/10:52am 12.7 7.2 7.6 71 2.7 W 26 50 14 27 - - 0.0
05/10:30am 13.1 10.2 8.2 72 2.7 W 13 39 7 21 - - 0.0
05/10:00am 12.4 10.3 6.5 67 3.1 NW 7 35 4 19 - - 0.0
05/09:30am 12.4 8.0 6.7 68 3.0 W 19 35 10 19 - - 0.0
05/09:11am 12.1 5.0 6.6 69 2.9 W 33 54 18 29 - - 0.0
05/09:00am 12.1 5.0 6.6 69 2.9 WNW 33 50 18 27 - - 9.8
05/08:50am 12.2 6.1 6.5 68 3.0 W 28 52 15 28 - - 9.8
05/08:30am 11.8 7.3 6.9 72 2.6 W 20 44 11 24 - - 9.8
05/08:00am 11.6 7.2 7.5 76 2.2 W 20 41 11 22 - - 9.8
05/07:30am 11.8 6.3 7.5 75 2.3 WNW 26 54 14 29 - - 9.8
05/07:01am 12.1 6.6 7.4 73 2.5 WNW 26 48 14 26 - - 9.8
05/07:00am 12.1 6.5 7.2 72 2.6 WNW 26 48 14 26 - - 9.8
05/06:30am 12.1 9.5 7.6 74 2.4 N 11 19 6 10 - - 9.8
05/06:00am 11.3 9.4 7.6 78 2.0 WNW 7 20 4 11 - - 9.8
05/05:30am 11.8 7.7 7.9 77 2.1 WNW 19 35 10 19 - - 9.8
05/05:00am 12.0 5.8 7.9 76 2.2 W 30 44 16 24 - - 9.8
05/04:30am 11.9 5.3 7.8 76 2.2 W 32 43 17 23 - - 9.8
05/04:00am 12.2 7.9 7.7 74 2.4 WNW 20 39 11 21 - - 9.8
05/03:30am 12.1 9.1 7.6 74 2.4 W 13 26 7 14 - - 9.8
05/03:00am 12.1 7.7 7.6 74 2.4 W 20 30 11 16 - - 9.8
05/02:30am 12.2 8.9 7.9 75 2.3 W 15 24 8 13 - - 9.8
05/02:00am 12.7 8.5 7.6 71 2.7 W 19 30 10 16 - - 9.8
05/01:30am 12.3 9.5 8.4 77 2.1 W 13 32 7 17 - - 9.8
05/01:00am 11.9 9.0 8.2 78 2.0 W 13 22 7 12 - - 9.8
05/12:30am 12.2 8.8 7.7 74 2.4 W 15 24 8 13 - - 9.8
05/12:00am 12.1 9.2 8.2 77 2.1 W 13 28 7 15 - - 9.8
 
Date/Time
EDT
Temp
°C
App
Temp
°C
Dew
Point
°C
Rel
Hum
%
Delta-T
°C
Wind Press
QNH
hPa
Press
MSL
hPa
Rain since
9am
mm
Dir  Spd
km/h
Gust
km/h
Spd
kts
Gust
kts
04/11:30pm 12.4 9.7 8.9 79 1.9 W 13 28 7 15 - - 9.8
04/11:00pm 12.6 10.1 9.6 82 1.7 WSW 13 24 7 13 - - 9.8
04/10:30pm 12.8 11.1 9.8 82 1.7 WSW 9 20 5 11 - - 9.8
04/10:00pm 12.9 10.8 9.9 82 1.7 W 11 26 6 14 - - 9.8
04/09:30pm 13.2 10.8 10.2 82 1.7 W 13 24 7 13 - - 9.8
04/09:00pm 13.3 10.9 9.9 80 1.9 W 13 22 7 12 - - 9.8
04/08:30pm 12.9 10.4 9.7 81 1.8 W 13 22 7 12 - - 9.8
04/08:00pm 12.8 10.4 8.5 75 2.4 W 11 19 6 10 - - 9.8
04/07:30pm 13.6 11.4 8.0 69 3.0 W 9 17 5 9 - - 9.8
04/07:00pm 14.3 13.5 9.5 73 2.7 NNW 4 11 2 6 - - 9.8
04/06:30pm 12.4 12.6 11.8 96 0.3 NW 2 6 1 3 - - 9.8
04/06:00pm 12.1 11.0 10.0 87 1.2 SE 6 11 3 6 - - 9.2
04/05:30pm 12.0 10.9 10.6 91 0.8 W 7 11 4 6 - - 8.6
04/05:00pm 11.6 10.9 10.2 91 0.8 SSW 4 11 2 6 - - 6.0
04/04:30pm 12.0 10.0 8.5 79 1.9 W 9 19 5 10 - - 1.0
04/04:00pm 12.6 9.2 9.2 80 1.9 W 17 30 9 16 - - 0.4
04/03:30pm 15.2 12.0 8.4 64 3.8 NW 15 24 8 13 - - 0.0
04/03:00pm 17.7 15.6 8.3 54 5.3 E 9 15 5 8 - - 0.0
04/02:30pm 18.8 17.4 8.7 52 5.7 SE 6 15 3 8 - - 0.0
04/02:00pm 17.8 15.5 7.5 51 5.7 SE 9 17 5 9 - - 0.0
04/01:30pm 17.4 15.6 8.0 54 5.2 SE 7 20 4 11 - - 0.0
04/01:00pm 18.1 16.0 6.0 45 6.5 S 6 17 3 9 - - 0.0
04/12:30pm 21.2 19.3 9.1 46 7.0 ESE 9 19 5 10 - - 0.0
04/12:00pm 19.3 16.8 6.4 43 7.0 SSE 9 19 5 10 - - 0.0
04/11:30am 18.9 16.1 7.0 46 6.5 SSE 11 19 6 10 - - 0.0
04/11:00am 19.1 17.0 8.1 49 6.2 SE 9 28 5 15 - - 0.0
04/10:30am 16.7 14.3 6.8 52 5.4 SW 9 19 5 10 - - 0.0
04/10:00am 17.2 15.0 6.1 48 5.9 SW 7 17 4 9 - - 0.0
04/09:30am 17.1 14.1 6.0 48 5.9 SW 11 22 6 12 - - 0.0
04/09:00am 16.4 14.0 6.8 53 5.2 SW 9 20 5 11 - - 0.0
04/08:30am 16.3 14.8 9.3 63 4.0 SW 7 15 4 8 - - 0.0
04/08:00am 14.7 13.4 9.3 70 3.0 SW 6 13 3 7 - - 0.0
04/07:30am 13.0 11.7 9.8 81 1.8 SW 7 17 4 9 - - 0.0
04/07:00am 10.4 9.3 8.5 88 1.0 SW 4 9 2 5 - - 0.0
04/06:30am 8.7 6.8 7.5 92 0.6 SW 7 11 4 6 - - 0.0
04/06:00am 6.4 4.1 5.7 95 0.3 SW 7 11 4 6 - - 0.0
04/05:30am 7.2 5.1 6.5 95 0.4 WSW 7 13 4 7 - - 0.0
04/05:00am 7.2 5.0 6.3 94 0.5 SW 7 13 4 7 - - 0.0
04/04:30am 6.4 4.8 6.4 100 0.0 WSW 4 7 2 4 - - 0.0
04/04:00am 5.3 3.9 5.3 100 0.0 SW 2 6 1 3 - - 0.0
04/03:30am 5.0 3.9 5.0 100 0.0 CALM 0 4 0 2 - - 0.0
04/03:00am 4.8 3.6 4.8 100 0.0 CALM 0 2 0 1 - - 0.0
04/02:30am 5.1 4.0 5.1 100 0.0 CALM 0 2 0 1 - - 0.0
04/02:00am 4.8 2.5 4.8 100 0.0 WSW 6 9 3 5 - - 0.0
04/01:30am 3.9 1.4 3.8 99 0.0 WSW 6 6 3 3 - - 0.0
04/01:00am 5.1 3.6 5.1 100 0.0 NE 2 2 1 1 - - 0.0
04/12:30am 5.5 3.3 5.5 100 0.0 WSW 6 9 3 5 - - 0.0
04/12:00am 5.9 4.6 5.9 100 0.0 WSW 2 4 1 2 - - 0.0
 
Date/Time
EDT
Temp
°C
App
Temp
°C
Dew
Point
°C
Rel
Hum
%
Delta-T
°C
Wind Press
QNH
hPa
Press
MSL
hPa
Rain since
9am
mm
Dir  Spd
km/h
Gust
km/h
Spd
kts
Gust
kts
03/11:30pm 6.6 5.7 5.9 95 0.3 CALM 0 2 0 1 - - 0.0
03/11:00pm 7.7 6.6 6.8 94 0.5 NW 2 6 1 3 - - 0.0
03/10:30pm 8.7 7.5 6.5 86 1.1 W 2 6 1 3 - - 0.0
03/10:00pm 10.1 9.3 6.6 79 1.8 CALM 0 2 0 1 - - 0.0
03/09:30pm 11.6 9.2 7.1 74 2.4 E 9 15 5 8 - - 0.0
03/09:00pm 12.2 9.9 7.3 72 2.6 E 9 17 5 9 - - 0.0
03/08:30pm 13.1 10.7 7.1 67 3.2 E 9 15 5 8 - - 0.0
03/08:00pm 13.8 12.3 6.9 63 3.7 ESE 4 9 2 5 - - 0.0
03/07:30pm 14.1 12.9 6.5 60 4.0 NE 2 6 1 3 - - 0.0
03/07:00pm 14.6 12.6 6.2 57 4.4 ESE 6 9 3 5 - - 0.0

Latest Capital City Observations: Canberra | Sydney | Melbourne | Brisbane | Adelaide | Perth | Hobart | Darwin

Other formats

Comma delimited format used in spreadsheet applications
http://www.bom.gov.au/fwo/IDN60903/IDN60903.94915.axf

JavaScript Object Notation format (JSON) in row-major order
http://www.bom.gov.au/fwo/IDN60903/IDN60903.94915.json

Data quality

Most of these data are generated automatically and are frequently updated. Quality checks on data are not normally performed. It is possible for incorrect values to appear. Refer to information at About Latest Weather Observations and please check the disclaimer before using these data.